Time;durP1;ratioP1;P1;durP2;ratioP2;P2;SDS_P1;SDS_P2;PMS_P1;PMS_P2;Temp;Humidity;BMP_temperature;BMP_pressure;BME280_temperature;BME280_humidity;BME280_pressure;Samples;Min_cycle;Max_cycle;Signal;HPM_P1;HPM_P2
2024/01/30 00:02:14;;;;;;;3.58;3.38;;;3.50;99.60;;;;;;5035858;28;20345;-77
2024/01/30 00:04:43;;;;;;;3.17;2.97;;;3.40;99.70;;;;;;5038330;28;20207;-77
2024/01/30 00:07:10;;;;;;;3.45;3.25;;;3.40;99.80;;;;;;5057676;28;20276;-77
2024/01/30 00:09:37;;;;;;;3.28;3.08;;;3.40;99.90;;;;;;5060108;28;20247;-77
2024/01/30 00:12:04;;;;;;;3.83;3.58;;;3.40;99.90;;;;;;5056064;28;20306;-77
2024/01/30 00:14:31;;;;;;;3.60;3.40;;;3.40;99.90;;;;;;5057856;28;20209;-77
2024/01/30 00:16:58;;;;;;;3.65;3.45;;;3.40;99.90;;;;;;5057219;28;20238;-77
2024/01/30 00:19:25;;;;;;;3.53;3.33;;;3.40;99.90;;;;;;5058943;28;20198;-78
2024/01/30 00:21:54;;;;;;;3.65;3.45;;;3.40;99.90;;;;;;5059349;28;20601;-77
2024/01/30 00:24:21;;;;;;;4.05;3.53;;;3.40;99.90;;;;;;5056540;28;20271;-77
2024/01/30 00:26:47;;;;;;;3.40;3.20;;;3.40;99.90;;;;;;5060152;28;20655;-76
2024/01/30 00:29:19;;;;;;;3.70;3.40;;;3.40;99.90;;;;;;5059189;28;20249;-78
2024/01/30 00:31:46;;;;;;;3.65;3.42;;;3.30;99.90;;;;;;5057896;28;20222;-76
2024/01/30 00:34:13;;;;;;;4.10;3.80;;;3.30;99.90;;;;;;5057075;28;20869;-77
2024/01/30 00:36:40;;;;;;;3.97;3.67;;;3.30;99.90;;;;;;5055148;28;20272;-77
2024/01/30 00:39:09;;;;;;;3.65;3.30;;;3.30;99.90;;;;;;5050737;28;20851;-76
2024/01/30 00:41:36;;;;;;;3.53;3.33;;;3.20;99.90;;;;;;5053765;28;20225;-77
2024/01/30 00:44:03;;;;;;;3.63;3.40;;;3.20;99.90;;;;;;5056512;28;20822;-78
2024/01/30 00:46:30;;;;;;;4.10;3.80;;;3.20;99.90;;;;;;5053018;28;20245;-77
2024/01/30 00:48:57;;;;;;;3.65;3.45;;;3.20;99.90;;;;;;5051505;28;20222;-78
2024/01/30 00:51:24;;;;;;;4.25;3.95;;;3.20;99.90;;;;;;5055616;28;20830;-78
2024/01/30 00:53:51;;;;;;;4.03;3.72;;;3.10;99.90;;;;;;5052578;28;20203;-77
2024/01/30 00:56:20;;;;;;;4.00;3.70;;;3.10;99.90;;;;;;5051823;28;20728;-78
2024/01/30 00:58:47;;;;;;;3.72;3.53;;;3.10;99.90;;;;;;5053574;28;20267;-76
2024/01/30 01:01:15;;;;;;;3.75;3.55;;;3.10;99.90;;;;;;5051471;28;20631;-78
2024/01/30 01:03:43;;;;;;;3.88;3.55;;;3.10;99.90;;;;;;5053940;28;20190;-78
2024/01/30 01:06:10;;;;;;;3.70;3.50;;;3.10;99.90;;;;;;5052639;28;20213;-77
2024/01/30 01:08:37;;;;;;;3.95;3.67;;;3.10;99.90;;;;;;5053485;28;20312;-78
2024/01/30 01:11:04;;;;;;;3.92;3.63;;;3.10;99.90;;;;;;5052090;28;20239;-78
2024/01/30 01:13:33;;;;;;;3.80;3.60;;;3.10;99.90;;;;;;5053393;28;20927;-78
2024/01/30 01:16:00;;;;;;;3.50;3.30;;;3.10;99.90;;;;;;5057056;28;20283;-76
2024/01/30 01:18:27;;;;;;;3.80;3.60;;;3.10;99.90;;;;;;5057543;28;20230;-77
2024/01/30 01:20:54;;;;;;;3.58;3.38;;;3.10;99.90;;;;;;5054441;28;20233;-77
2024/01/30 01:23:21;;;;;;;3.35;3.15;;;3.10;99.90;;;;;;5062263;28;20203;-77
2024/01/30 01:25:48;;;;;;;3.78;3.40;;;3.10;99.90;;;;;;5055366;28;20267;-76
2024/01/30 01:28:14;;;;;;;3.83;3.63;;;3.00;99.90;;;;;;5056291;28;20283;-78
2024/01/30 01:30:43;;;;;;;3.25;3.05;;;2.90;99.90;;;;;;5057672;28;20226;-78
2024/01/30 01:33:10;;;;;;;3.58;3.38;;;2.90;99.90;;;;;;5056247;28;20828;-78
2024/01/30 01:35:37;;;;;;;3.65;3.40;;;2.90;99.90;;;;;;5054064;28;20218;-77
2024/01/30 01:38:04;;;;;;;4.30;4.00;;;2.90;99.90;;;;;;5051828;28;20227;-77
2024/01/30 01:40:31;;;;;;;3.50;3.30;;;2.90;99.90;;;;;;5053621;28;20234;-77
2024/01/30 01:42:58;;;;;;;4.00;3.70;;;2.80;99.90;;;;;;5058861;28;20190;-77
2024/01/30 01:45:25;;;;;;;3.83;3.55;;;2.80;99.90;;;;;;5060544;28;20760;-78
2024/01/30 01:47:54;;;;;;;4.13;3.83;;;2.80;99.90;;;;;;5060275;28;20214;-78
2024/01/30 01:50:22;;;;;;;3.50;3.22;;;2.80;99.90;;;;;;5062173;28;20217;-78
2024/01/30 01:52:49;;;;;;;3.80;3.60;;;2.80;99.90;;;;;;5060625;28;20279;-77
2024/01/30 01:55:18;;;;;;;3.85;3.60;;;2.80;99.90;;;;;;5055984;28;20302;-77
2024/01/30 01:57:46;;;;;;;3.60;3.40;;;2.80;99.90;;;;;;5053765;28;20222;-77
2024/01/30 02:00:15;;;;;;;4.20;3.90;;;2.80;99.90;;;;;;5054961;28;20845;-77
2024/01/30 02:02:44;;;;;;;3.42;3.20;;;2.80;99.90;;;;;;5055472;28;20280;-77
2024/01/30 02:05:13;;;;;;;3.67;3.40;;;2.90;99.90;;;;;;5058671;28;20195;-78
2024/01/30 02:07:40;;;;;;;3.83;3.60;;;2.90;99.90;;;;;;5054040;28;20219;-77
2024/01/30 02:10:09;;;;;;;3.63;3.42;;;2.90;99.90;;;;;;5056295;28;20202;-77
2024/01/30 02:12:36;;;;;;;3.53;3.33;;;2.80;99.90;;;;;;5053562;28;20665;-77
2024/01/30 02:15:04;;;;;;;3.63;3.42;;;2.80;99.90;;;;;;5058365;28;20251;-77
2024/01/30 02:17:32;;;;;;;3.83;3.60;;;2.80;99.90;;;;;;5055321;28;20595;-77
2024/01/30 02:19:59;;;;;;;3.60;3.40;;;2.80;99.90;;;;;;5052217;28;21059;-77
2024/01/30 02:22:27;;;;;;;3.47;3.28;;;2.80;99.90;;;;;;5064144;28;20310;-77
2024/01/30 02:24:54;;;;;;;3.83;3.63;;;2.70;99.90;;;;;;5058388;28;20199;-77
2024/01/30 02:27:21;;;;;;;3.80;3.50;;;2.70;99.90;;;;;;5055790;28;20624;-77
2024/01/30 02:29:48;;;;;;;3.80;3.60;;;2.70;99.90;;;;;;5058318;28;20198;-77
2024/01/30 02:32:15;;;;;;;3.70;3.50;;;2.60;99.90;;;;;;5057437;28;20287;-78
2024/01/30 02:34:42;;;;;;;3.75;3.55;;;2.60;99.90;;;;;;5060499;28;20197;-77
2024/01/30 02:37:09;;;;;;;3.60;3.40;;;2.60;99.90;;;;;;5056302;28;20286;-77
2024/01/30 02:39:37;;;;;;;3.95;3.47;;;2.60;99.90;;;;;;5056649;28;20206;-77
2024/01/30 02:42:05;;;;;;;4.05;3.70;;;2.60;99.90;;;;;;5053723;28;20214;-76
2024/01/30 02:44:32;;;;;;;3.70;3.50;;;2.70;99.90;;;;;;5059241;28;20267;-78
2024/01/30 02:46:59;;;;;;;3.67;3.47;;;2.60;99.90;;;;;;5056971;28;20252;-77
2024/01/30 02:49:26;;;;;;;4.18;3.88;;;2.60;99.90;;;;;;5055375;28;20300;-77
2024/01/30 02:51:54;;;;;;;3.63;3.42;;;2.60;99.90;;;;;;5059481;28;20230;-77
2024/01/30 02:54:21;;;;;;;3.50;3.30;;;2.60;99.90;;;;;;5055960;28;20195;-77
2024/01/30 02:56:49;;;;;;;3.78;3.50;;;2.60;99.90;;;;;;5059876;28;20268;-75
2024/01/30 02:59:16;;;;;;;4.10;3.80;;;2.60;99.90;;;;;;5059589;28;20422;-78
2024/01/30 03:01:45;;;;;;;3.80;3.60;;;2.60;99.90;;;;;;5056362;28;21016;-77
2024/01/30 03:04:12;;;;;;;3.67;3.47;;;2.60;99.90;;;;;;5057208;28;20712;-77
2024/01/30 03:06:39;;;;;;;3.65;3.45;;;2.60;99.90;;;;;;5056193;28;20233;-78
2024/01/30 03:09:06;;;;;;;3.95;3.75;;;2.60;99.90;;;;;;5056593;28;20771;-76
2024/01/30 03:11:33;;;;;;;4.00;3.70;;;2.50;99.90;;;;;;5055692;28;20230;-77
2024/01/30 03:14:01;;;;;;;3.83;3.63;;;2.50;99.90;;;;;;5058104;28;20206;-77
2024/01/30 03:16:30;;;;;;;4.15;3.88;;;2.40;99.90;;;;;;5058464;28;20252;-78
2024/01/30 03:18:57;;;;;;;3.53;3.33;;;2.40;99.90;;;;;;5057825;28;20224;-78
2024/01/30 03:21:24;;;;;;;3.42;3.22;;;2.40;99.90;;;;;;5055230;28;20681;-78
2024/01/30 03:23:51;;;;;;;3.50;3.30;;;2.40;99.90;;;;;;5057076;28;20560;-77
2024/01/30 03:26:17;;;;;;;3.92;3.72;;;2.40;99.90;;;;;;5057442;28;20809;-77
2024/01/30 03:28:44;;;;;;;3.47;3.28;;;2.40;99.90;;;;;;5056666;28;20225;-77
2024/01/30 03:31:16;;;;;;;4.03;3.83;;;2.40;99.90;;;;;;5055677;28;20247;-77
2024/01/30 03:33:44;;;;;;;3.63;3.42;;;2.40;99.90;;;;;;5061515;28;20202;-78
2024/01/30 03:36:11;;;;;;;3.53;3.33;;;2.30;99.90;;;;;;5064896;28;20688;-78
2024/01/30 03:38:38;;;;;;;3.95;3.75;;;2.30;99.90;;;;;;5058122;28;20223;-78
2024/01/30 03:41:09;;;;;;;3.80;3.60;;;2.30;99.90;;;;;;5064346;28;20350;-78
2024/01/30 03:43:36;;;;;;;3.50;3.30;;;2.30;99.90;;;;;;5061673;28;20206;-77
2024/01/30 03:46:04;;;;;;;3.90;3.70;;;2.30;99.90;;;;;;5057248;28;20211;-77
2024/01/30 03:48:32;;;;;;;3.95;3.70;;;2.30;99.90;;;;;;5055525;28;20263;-77
2024/01/30 03:50:59;;;;;;;4.00;3.70;;;2.30;99.90;;;;;;5055721;28;20218;-76
2024/01/30 03:53:26;;;;;;;3.80;3.55;;;2.30;99.90;;;;;;5060333;28;20210;-78
2024/01/30 03:55:53;;;;;;;4.00;3.70;;;2.40;99.90;;;;;;5057410;28;20222;-78
2024/01/30 03:58:20;;;;;;;3.67;3.47;;;2.30;99.90;;;;;;5058066;28;20230;-76
2024/01/30 04:00:47;;;;;;;3.85;3.60;;;2.30;99.90;;;;;;5053274;28;20218;-77
2024/01/30 04:03:15;;;;;;;3.60;3.40;;;2.30;99.90;;;;;;5056394;28;20230;-77
2024/01/30 04:05:43;;;;;;;4.50;3.80;;;2.20;99.90;;;;;;5060046;28;20241;-77
2024/01/30 04:08:11;;;;;;;3.95;3.70;;;2.20;99.90;;;;;;5056604;28;20972;-77
2024/01/30 04:10:38;;;;;;;3.95;3.67;;;2.20;99.90;;;;;;5056158;28;20766;-78
2024/01/30 04:13:07;;;;;;;3.90;3.70;;;2.10;99.90;;;;;;5058178;28;20247;-77
2024/01/30 04:15:35;;;;;;;3.58;3.38;;;2.20;99.90;;;;;;5054110;28;20820;-77
2024/01/30 04:18:02;;;;;;;3.63;3.42;;;2.10;99.90;;;;;;5053989;28;20230;-78
2024/01/30 04:20:30;;;;;;;3.83;3.60;;;2.20;99.90;;;;;;5057405;28;20692;-77
2024/01/30 04:22:58;;;;;;;3.55;3.35;;;2.20;99.90;;;;;;5059082;28;20209;-77
2024/01/30 04:25:25;;;;;;;3.67;3.47;;;2.20;99.90;;;;;;5055277;28;20226;-77
2024/01/30 04:27:52;;;;;;;3.92;3.67;;;2.20;99.90;;;;;;5052540;28;20256;-76
2024/01/30 04:30:19;;;;;;;3.88;3.67;;;2.20;99.90;;;;;;5049545;28;20223;-77
2024/01/30 04:32:46;;;;;;;3.80;3.50;;;2.20;99.90;;;;;;5054622;28;20202;-77
2024/01/30 04:35:13;;;;;;;3.65;3.45;;;2.20;99.90;;;;;;5058780;28;20684;-77
2024/01/30 04:37:40;;;;;;;3.33;3.13;;;2.20;99.90;;;;;;5055643;28;20218;-76
2024/01/30 04:40:09;;;;;;;3.80;3.60;;;2.20;99.90;;;;;;5056428;28;20221;-77
2024/01/30 04:42:36;;;;;;;3.80;3.60;;;2.10;99.90;;;;;;5062306;28;20665;-77
2024/01/30 04:45:03;;;;;;;4.07;3.80;;;2.10;99.90;;;;;;5057835;28;20721;-77
2024/01/30 04:47:30;;;;;;;4.22;3.92;;;2.10;99.90;;;;;;5056679;28;20267;-77
2024/01/30 04:49:58;;;;;;;3.72;3.50;;;2.00;99.90;;;;;;5060971;28;20604;-77
2024/01/30 04:52:24;;;;;;;4.43;4.03;;;2.00;99.90;;;;;;5059871;28;20728;-77
2024/01/30 04:54:51;;;;;;;3.50;3.30;;;2.00;99.90;;;;;;5059108;28;21116;-76
2024/01/30 04:57:20;;;;;;;4.13;3.78;;;2.00;99.90;;;;;;5060276;28;20303;-76
2024/01/30 04:59:47;;;;;;;3.65;3.45;;;1.90;99.90;;;;;;5059295;28;20199;-77
2024/01/30 05:02:14;;;;;;;3.75;3.55;;;2.00;99.90;;;;;;5057071;28;20800;-77
2024/01/30 05:04:42;;;;;;;3.83;3.60;;;2.00;99.90;;;;;;5060764;28;20205;-77
2024/01/30 05:07:09;;;;;;;3.65;3.45;;;2.00;99.90;;;;;;5062768;28;20238;-76
2024/01/30 05:09:36;;;;;;;4.05;3.85;;;1.90;99.90;;;;;;5057794;28;20830;-77
2024/01/30 05:12:03;;;;;;;4.97;4.57;;;1.90;99.90;;;;;;5059027;28;20966;-76
2024/01/30 05:14:31;;;;;;;4.55;4.15;;;1.90;99.90;;;;;;5060881;28;20289;-77
2024/01/30 05:16:58;;;;;;;4.13;3.83;;;1.90;99.90;;;;;;5060550;28;20284;-76
2024/01/30 05:19:25;;;;;;;4.00;3.70;;;1.90;99.90;;;;;;5056638;28;20226;-76
2024/01/30 05:21:52;;;;;;;4.68;4.28;;;1.90;99.90;;;;;;5061452;28;20254;-77
2024/01/30 05:24:19;;;;;;;4.45;4.15;;;1.90;99.90;;;;;;5060145;28;20288;-76
2024/01/30 05:26:48;;;;;;;4.22;4.00;;;1.90;99.90;;;;;;5062200;28;20892;-77
2024/01/30 05:29:14;;;;;;;4.00;3.80;;;2.00;99.90;;;;;;5058674;28;20635;-77
2024/01/30 05:31:43;;;;;;;4.03;3.72;;;2.00;99.90;;;;;;5060582;28;20257;-77
2024/01/30 05:34:10;;;;;;;4.20;3.90;;;1.90;99.90;;;;;;5058459;28;20233;-77
2024/01/30 05:36:37;;;;;;;3.90;3.70;;;1.90;99.90;;;;;;5060191;28;20217;-77
2024/01/30 05:39:04;;;;;;;3.72;3.53;;;1.90;99.90;;;;;;5059388;28;20273;-77
2024/01/30 05:41:32;;;;;;;3.83;3.63;;;1.90;99.90;;;;;;5061939;28;20217;-77
2024/01/30 05:43:59;;;;;;;3.55;3.35;;;1.80;99.90;;;;;;5060161;28;20262;-78
2024/01/30 05:46:26;;;;;;;3.65;3.45;;;1.80;99.90;;;;;;5059870;28;20779;-77
2024/01/30 05:48:54;;;;;;;3.65;3.45;;;1.80;99.90;;;;;;5060732;28;20272;-77
2024/01/30 05:51:22;;;;;;;3.83;3.63;;;1.80;99.90;;;;;;5057464;28;20230;-77
2024/01/30 05:53:49;;;;;;;3.88;3.65;;;1.80;99.90;;;;;;5059505;28;20754;-76
2024/01/30 05:56:16;;;;;;;3.63;3.42;;;1.80;99.90;;;;;;5057884;28;20214;-77
2024/01/30 05:58:43;;;;;;;4.07;3.78;;;1.80;99.90;;;;;;5059789;28;20316;-77
2024/01/30 06:01:11;;;;;;;3.75;3.55;;;1.80;99.90;;;;;;5056125;28;20343;-78
2024/01/30 06:03:38;;;;;;;3.78;3.58;;;1.70;99.90;;;;;;5058609;28;20210;-77
2024/01/30 06:06:07;;;;;;;4.60;4.30;;;1.70;99.90;;;;;;5061069;28;20224;-76
2024/01/30 06:08:34;;;;;;;3.90;3.70;;;1.70;99.90;;;;;;5058910;28;20933;-77
2024/01/30 06:11:01;;;;;;;4.32;4.03;;;1.60;99.90;;;;;;5059311;28;20295;-77
2024/01/30 06:13:31;;;;;;;4.40;4.10;;;1.50;99.90;;;;;;5058787;28;20195;-77
2024/01/30 06:15:58;;;;;;;4.07;3.88;;;1.50;99.90;;;;;;5060348;28;20311;-77
2024/01/30 06:18:26;;;;;;;4.57;4.22;;;1.40;99.90;;;;;;5057608;28;21199;-77
2024/01/30 06:20:53;;;;;;;4.28;3.97;;;1.50;99.90;;;;;;5059524;28;20889;-77
2024/01/30 06:23:22;;;;;;;4.07;3.88;;;1.40;99.90;;;;;;5059315;28;20845;-76
2024/01/30 06:25:49;;;;;;;4.43;4.13;;;1.40;99.90;;;;;;5061703;28;20281;-77
2024/01/30 06:28:16;;;;;;;4.13;3.90;;;1.40;99.90;;;;;;5059883;28;20245;-77
2024/01/30 06:30:43;;;;;;;4.55;4.25;;;1.50;99.90;;;;;;5061546;28;20846;-76
2024/01/30 06:33:13;;;;;;;4.22;4.03;;;1.50;99.90;;;;;;5058882;28;20198;-76
2024/01/30 06:35:40;;;;;;;3.95;3.67;;;1.50;99.90;;;;;;5058029;28;20237;-76
2024/01/30 06:38:07;;;;;;;4.43;4.13;;;1.50;99.90;;;;;;5057712;28;20220;-76
2024/01/30 06:40:35;;;;;;;4.15;3.85;;;1.50;99.90;;;;;;5059754;28;20218;-77
2024/01/30 06:43:02;;;;;;;4.07;3.88;;;1.50;99.90;;;;;;5065261;28;20324;-78
2024/01/30 06:45:29;;;;;;;4.55;4.00;;;1.60;99.90;;;;;;5059630;28;20218;-78
2024/01/30 06:47:56;;;;;;;4.10;3.80;;;1.60;99.90;;;;;;5058500;28;20206;-77
2024/01/30 06:50:23;;;;;;;4.25;3.83;;;1.60;99.90;;;;;;5059630;28;20226;-77
2024/01/30 06:52:50;;;;;;;4.80;4.40;;;1.60;99.90;;;;;;5055215;28;20194;-78
2024/01/30 06:55:17;;;;;;;5.00;4.60;;;1.60;99.90;;;;;;5059947;28;20226;-78
2024/01/30 06:57:46;;;;;;;5.20;4.78;;;1.60;99.90;;;;;;5057892;28;20884;-77
2024/01/30 07:00:15;;;;;;;5.15;4.65;;;1.60;99.90;;;;;;5056983;28;20206;-77
2024/01/30 07:02:42;;;;;;;5.63;4.80;;;1.70;99.90;;;;;;5056403;28;20206;-77
2024/01/30 07:05:09;;;;;;;4.97;4.50;;;1.70;99.90;;;;;;5058947;28;20202;-76
2024/01/30 07:07:36;;;;;;;4.45;4.13;;;1.70;99.90;;;;;;5060927;28;20210;-77
2024/01/30 07:10:03;;;;;;;4.60;4.30;;;1.70;99.90;;;;;;5057893;28;20202;-77
2024/01/30 07:12:32;;;;;;;4.93;4.53;;;1.70;99.90;;;;;;5056376;28;20280;-76
2024/01/30 07:15:00;;;;;;;4.88;4.57;;;1.70;99.90;;;;;;5058226;28;20202;-77
2024/01/30 07:17:27;;;;;;;4.03;3.72;;;1.80;99.90;;;;;;5058719;28;20334;-77
2024/01/30 07:19:54;;;;;;;5.05;4.65;;;1.80;99.90;;;;;;5055914;28;20815;-77
2024/01/30 07:22:21;;;;;;;4.68;4.38;;;1.80;99.90;;;;;;5060134;28;20233;-78
2024/01/30 07:24:49;;;;;;;4.50;4.18;;;1.90;99.90;;;;;;5060681;28;20720;-77
2024/01/30 07:27:17;;;;;;;4.35;4.05;;;2.00;99.90;;;;;;5058473;28;20276;-77
2024/01/30 07:29:44;;;;;;;4.53;4.22;;;2.00;99.90;;;;;;5055413;28;20276;-78
2024/01/30 07:32:13;;;;;;;4.50;4.20;;;2.00;99.90;;;;;;5058622;28;20918;-78
2024/01/30 07:34:40;;;;;;;4.50;4.20;;;2.00;99.90;;;;;;5058212;28;20425;-77
2024/01/30 07:37:08;;;;;;;4.38;3.97;;;2.10;99.90;;;;;;5052692;28;20783;-78
2024/01/30 07:39:35;;;;;;;4.72;4.32;;;2.20;99.90;;;;;;5058693;28;20221;-77
2024/01/30 07:42:02;;;;;;;4.72;4.43;;;2.30;99.90;;;;;;5057092;28;20231;-78
2024/01/30 07:44:29;;;;;;;4.85;4.45;;;2.30;99.90;;;;;;5059414;28;20921;-77
2024/01/30 07:46:57;;;;;;;5.05;4.63;;;2.20;99.90;;;;;;5058136;28;20625;-77
2024/01/30 07:49:25;;;;;;;5.22;4.85;;;2.20;99.90;;;;;;5057250;28;20218;-77
2024/01/30 07:51:52;;;;;;;5.35;4.85;;;2.20;99.90;;;;;;5060246;28;20225;-78
2024/01/30 07:54:19;;;;;;;6.70;5.82;;;2.20;99.90;;;;;;5056157;28;20198;-77
2024/01/30 07:56:46;;;;;;;6.88;6.20;;;2.20;99.90;;;;;;5055527;28;20267;-78
2024/01/30 07:59:13;;;;;;;5.82;5.32;;;2.40;99.90;;;;;;5049358;28;20307;-78
2024/01/30 08:01:40;;;;;;;6.05;5.45;;;3.00;99.90;;;;;;5048247;28;20229;-78
2024/01/30 08:04:07;;;;;;;5.80;5.03;;;3.90;99.90;;;;;;5057479;28;20206;-78
2024/01/30 08:06:36;;;;;;;5.10;4.70;;;4.60;99.90;;;;;;5052761;28;20222;-79
2024/01/30 08:09:04;;;;;;;5.10;4.60;;;5.40;99.90;;;;;;5055246;28;20218;-78
2024/01/30 08:11:31;;;;;;;5.13;4.70;;;6.00;99.90;;;;;;5053109;28;20225;-78
2024/01/30 08:13:58;;;;;;;4.65;4.20;;;6.50;99.90;;;;;;5056806;28;20264;-78
2024/01/30 08:16:25;;;;;;;5.30;4.82;;;7.00;99.90;;;;;;5048849;28;20246;-78
2024/01/30 08:18:53;;;;;;;4.85;4.45;;;7.40;99.90;;;;;;5052259;28;20984;-78
2024/01/30 08:21:20;;;;;;;5.47;4.90;;;7.90;99.90;;;;;;5054221;28;20232;-78
2024/01/30 08:23:48;;;;;;;5.40;4.90;;;8.40;99.90;;;;;;5054508;28;20206;-78
2024/01/30 08:26:15;;;;;;;5.03;4.63;;;8.70;99.90;;;;;;5050227;28;20777;-78
2024/01/30 08:28:42;;;;;;;7.07;6.38;;;9.20;99.90;;;;;;5052450;28;20798;-78
2024/01/30 08:31:12;;;;;;;7.53;6.75;;;9.60;99.90;;;;;;5057951;28;20289;-80
2024/01/30 08:33:38;;;;;;;9.18;7.93;;;9.90;99.90;;;;;;5054822;28;20206;-79
2024/01/30 08:36:06;;;;;;;8.55;7.75;;;10.30;99.90;;;;;;5054816;28;20226;-79
2024/01/30 08:38:33;;;;;;;8.85;7.70;;;10.60;99.90;;;;;;5049231;28;20731;-79
2024/01/30 08:41:02;;;;;;;7.43;6.55;;;11.00;99.90;;;;;;5055937;28;20300;-77
2024/01/30 08:43:29;;;;;;;7.95;5.65;;;11.20;99.90;;;;;;5063835;28;20198;-78
2024/01/30 08:45:57;;;;;;;7.47;5.70;;;11.30;99.90;;;;;;5062854;28;20275;-78
2024/01/30 08:48:25;;;;;;;6.47;5.82;;;11.40;99.90;;;;;;5058493;28;20260;-77
2024/01/30 08:50:52;;;;;;;5.65;5.05;;;11.40;99.90;;;;;;5057999;28;20896;-78
2024/01/30 08:53:19;;;;;;;4.97;4.57;;;11.40;99.80;;;;;;5058671;28;21145;-78
2024/01/30 08:55:46;;;;;;;4.60;4.20;;;11.60;99.90;;;;;;5058363;28;20210;-78
2024/01/30 08:58:15;;;;;;;5.00;4.50;;;11.70;99.30;;;;;;5055902;28;22252;-79
2024/01/30 09:00:42;;;;;;;6.00;4.90;;;11.70;99.00;;;;;;5059077;28;20222;-79
2024/01/30 09:03:09;;;;;;;5.32;4.38;;;11.80;98.30;;;;;;5052778;28;20833;-79
2024/01/30 09:05:36;;;;;;;5.15;4.75;;;11.80;98.40;;;;;;5054471;28;20230;-78
2024/01/30 09:08:03;;;;;;;5.35;4.82;;;11.90;98.00;;;;;;5057063;28;20275;-78
2024/01/30 09:10:30;;;;;;;5.05;4.65;;;12.00;98.00;;;;;;5055964;28;20304;-79
2024/01/30 09:12:57;;;;;;;5.00;4.50;;;12.10;97.40;;;;;;5061563;28;20202;-79
2024/01/30 09:15:25;;;;;;;5.03;4.45;;;12.30;97.30;;;;;;5057641;28;20222;-79
2024/01/30 09:17:52;;;;;;;6.05;4.63;;;12.50;96.80;;;;;;5054647;28;20214;-79
2024/01/30 09:20:20;;;;;;;5.30;4.55;;;12.60;96.20;;;;;;5055589;28;20226;-79
2024/01/30 09:22:47;;;;;;;5.30;4.53;;;12.70;95.40;;;;;;5057322;28;20190;-77
2024/01/30 09:25:14;;;;;;;4.55;4.15;;;12.70;95.40;;;;;;5059024;28;20195;-78
2024/01/30 09:27:41;;;;;;;5.07;4.55;;;12.80;94.50;;;;;;5052807;28;20665;-79
2024/01/30 09:30:09;;;;;;;5.10;4.60;;;12.80;94.60;;;;;;5055917;28;21069;-78
2024/01/30 09:32:37;;;;;;;6.15;4.75;;;12.50;94.90;;;;;;5061525;28;20206;-78
2024/01/30 09:35:05;;;;;;;6.70;4.43;;;12.80;94.50;;;;;;5059162;28;20898;-77
2024/01/30 09:37:33;;;;;;;5.18;4.68;;;13.70;93.00;;;;;;5061070;28;20214;-78
2024/01/30 09:40:00;;;;;;;5.30;4.80;;;15.20;90.00;;;;;;5060690;28;20229;-79
2024/01/30 09:42:35;;;;;;;4.78;4.38;;;16.70;80.80;;;;;;5057802;28;20270;-80
2024/01/30 09:45:04;;;;;;;6.15;4.78;;;18.30;71.80;;;;;;5069618;28;20218;-79
2024/01/30 09:47:33;;;;;;;4.88;4.45;;;19.20;65.10;;;;;;5059634;28;20214;-79
2024/01/30 09:50:05;;;;;;;4.70;4.28;;;19.30;61.50;;;;;;5061067;28;20221;-78
2024/01/30 09:52:33;;;;;;;6.28;4.78;;;18.50;62.60;;;;;;5061255;28;20269;-78
2024/01/30 09:55:01;;;;;;;7.90;4.72;;;17.30;64.30;;;;;;5058532;28;20202;-78
2024/01/30 09:57:28;;;;;;;5.55;4.50;;;16.20;67.90;;;;;;5059145;28;20218;-77
2024/01/30 09:59:55;;;;;;;5.15;4.63;;;15.30;71.00;;;;;;5058720;28;20790;-78
2024/01/30 10:02:23;;;;;;;5.38;4.60;;;14.70;74.10;;;;;;5061621;28;20237;-79
2024/01/30 10:04:50;;;;;;;4.47;4.07;;;14.30;75.40;;;;;;5060106;28;20720;-79
2024/01/30 10:07:19;;;;;;;5.32;4.75;;;14.00;76.50;;;;;;5056619;28;20984;-79
2024/01/30 10:09:46;;;;;;;4.63;4.22;;;14.00;75.50;;;;;;5057227;28;20191;-79
2024/01/30 10:12:13;;;;;;;5.28;4.30;;;13.60;77.00;;;;;;5062480;28;20613;-79
2024/01/30 10:14:40;;;;;;;5.25;4.70;;;13.20;81.00;;;;;;5062477;28;20665;-78
2024/01/30 10:17:09;;;;;;;4.85;4.32;;;13.10;83.30;;;;;;5067503;28;20214;-77
2024/01/30 10:19:36;;;;;;;7.13;4.25;;;13.20;83.90;;;;;;5064297;28;20278;-78
2024/01/30 10:22:04;;;;;;;6.97;4.20;;;13.60;91.90;;;;;;5064578;28;20268;-78
2024/01/30 10:24:34;;;;;;;4.53;4.13;;;14.10;91.40;;;;;;5062358;28;20235;-78
2024/01/30 10:27:01;;;;;;;4.43;4.03;;;14.60;90.50;;;;;;5064451;28;20287;-79
2024/01/30 10:29:28;;;;;;;4.63;4.22;;;14.60;87.00;;;;;;5063903;28;20202;-78
2024/01/30 10:32:03;;;;;;;4.57;4.18;;;14.60;89.90;;;;;;5062185;28;20274;-78
2024/01/30 10:34:30;;;;;;;7.13;5.18;;;14.90;87.00;;;;;;5064665;28;20205;-78
2024/01/30 10:37:04;;;;;;;5.70;4.35;;;15.10;88.70;;;;;;5063190;28;20275;-78
2024/01/30 10:39:38;;;;;;;4.90;4.38;;;15.30;89.50;;;;;;5056176;28;20222;-77
2024/01/30 10:42:06;;;;;;;4.88;4.38;;;15.20;87.10;;;;;;5051887;28;20826;-77
2024/01/30 10:44:40;;;;;;;6.28;4.32;;;15.30;88.90;;;;;;5060171;28;20946;-76
2024/01/30 10:47:09;;;;;;;5.22;4.80;;;15.20;87.10;;;;;;5058272;28;20284;-77
2024/01/30 10:49:39;;;;;;;6.32;4.97;;;15.30;89.00;;;;;;5061763;28;20945;-79
2024/01/30 10:52:07;;;;;;;5.65;5.00;;;15.20;87.30;;;;;;5058574;28;20230;-76
2024/01/30 10:54:35;;;;;;;5.00;4.50;;;15.00;83.90;;;;;;5060493;28;20775;-77
2024/01/30 10:57:04;;;;;;;5.80;4.85;;;14.80;87.70;;;;;;5054965;28;20222;-77
2024/01/30 10:59:32;;;;;;;5.72;4.30;;;14.80;86.20;;;;;;5057984;28;20214;-77
2024/01/30 11:01:59;;;;;;;5.18;4.43;;;14.60;86.40;;;;;;5054407;28;20222;-76
2024/01/30 11:04:28;;;;;;;5.78;4.43;;;14.70;87.80;;;;;;5052774;28;20202;-77
2024/01/30 11:06:55;;;;;;;6.18;4.80;;;15.00;88.10;;;;;;5046171;28;20238;-77
2024/01/30 11:09:22;;;;;;;7.13;4.47;;;15.40;86.30;;;;;;5053340;28;20256;-76
2024/01/30 11:11:51;;;;;;;6.32;4.60;;;15.30;84.90;;;;;;5053967;28;20229;-76
2024/01/30 11:14:24;;;;;;;5.20;4.20;;;15.10;83.50;;;;;;5054741;28;20645;-76
2024/01/30 11:16:51;;;;;;;5.22;4.15;;;14.70;84.50;;;;;;5051978;28;20309;-77
2024/01/30 11:19:24;;;;;;;5.43;4.55;;;14.80;84.00;;;;;;5051830;28;20692;-76
2024/01/30 11:21:53;;;;;;;4.90;4.45;;;14.50;83.60;;;;;;5052691;28;21086;-76
2024/01/30 11:24:21;;;;;;;6.05;4.00;;;14.50;85.00;;;;;;5055503;28;21007;-76
2024/01/30 11:26:51;;;;;;;5.35;4.53;;;14.60;85.80;;;;;;5053780;28;20309;-76
2024/01/30 11:29:18;;;;;;;5.07;4.20;;;14.80;85.80;;;;;;5054206;28;20768;-75
2024/01/30 11:31:55;;;;;;;7.22;5.18;;;15.00;86.00;;;;;;5054922;28;20219;-76
2024/01/30 11:34:22;;;;;;;6.72;5.13;;;15.20;88.40;;;;;;5054379;28;20668;-76
2024/01/30 11:36:58;;;;;;;7.38;5.13;;;15.30;85.00;;;;;;5054941;28;20217;-77
2024/01/30 11:39:26;;;;;;;7.75;4.43;;;15.30;87.40;;;;;;5060140;28;20221;-77
2024/01/30 11:41:55;;;;;;;6.15;4.85;;;14.90;83.10;;;;;;5059223;28;20239;-77
2024/01/30 11:44:22;;;;;;;6.40;4.30;;;14.30;81.80;;;;;;5059927;28;20202;-79
2024/01/30 11:46:52;;;;;;;4.20;3.63;;;14.00;82.30;;;;;;5058154;28;20206;-76
2024/01/30 11:49:19;;;;;;;5.43;4.65;;;14.10;84.50;;;;;;5060795;28;20267;-77
2024/01/30 11:51:48;;;;;;;5.38;4.35;;;13.80;81.50;;;;;;5053277;28;20210;-77
2024/01/30 11:54:16;;;;;;;5.15;4.15;;;13.60;82.50;;;;;;5054228;28;20209;-76
2024/01/30 11:56:43;;;;;;;4.38;3.95;;;13.20;81.60;;;;;;5056137;28;20308;-78
2024/01/30 11:59:12;;;;;;;5.47;4.05;;;12.90;81.50;;;;;;5052244;28;20340;-75
2024/01/30 12:01:39;;;;;;;4.97;4.18;;;12.80;83.20;;;;;;5050917;28;20227;-76
2024/01/30 12:04:08;;;;;;;5.32;3.80;;;13.10;83.90;;;;;;5049455;28;20217;-76
2024/01/30 12:06:36;;;;;;;4.30;3.78;;;13.60;84.30;;;;;;5048199;28;20215;-76
2024/01/30 12:09:04;;;;;;;4.07;3.67;;;14.00;84.20;;;;;;5050912;28;20218;-76
2024/01/30 12:11:32;;;;;;;3.95;3.65;;;14.10;82.80;;;;;;5051823;28;20703;-76
2024/01/30 12:13:59;;;;;;;6.10;3.80;;;14.20;83.90;;;;;;5051776;28;20276;-76
2024/01/30 12:16:28;;;;;;;4.68;3.38;;;14.40;83.60;;;;;;5051926;28;20222;-76
2024/01/30 12:19:02;;;;;;;3.97;3.67;;;14.60;84.10;;;;;;5051167;28;20298;-76
2024/01/30 12:21:29;;;;;;;3.63;3.30;;;14.60;81.20;;;;;;5049681;28;20228;-76
2024/01/30 12:23:57;;;;;;;3.92;3.38;;;14.60;82.80;;;;;;5052532;28;20738;-78
2024/01/30 12:26:26;;;;;;;5.38;3.38;;;14.70;80.40;;;;;;5052649;28;20229;-78
2024/01/30 12:28:57;;;;;;;4.40;4.00;;;14.70;80.10;;;;;;5051834;28;20314;-76
2024/01/30 12:31:28;;;;;;;3.97;3.58;;;14.50;82.20;;;;;;5048077;28;20217;-77
2024/01/30 12:33:56;;;;;;;3.67;3.38;;;14.20;81.60;;;;;;5049518;28;20225;-76
2024/01/30 12:36:24;;;;;;;5.07;3.63;;;14.30;82.60;;;;;;5054438;28;20228;-77
2024/01/30 12:38:51;;;;;;;4.55;3.90;;;14.10;82.30;;;;;;5050874;28;20236;-76
2024/01/30 12:41:18;;;;;;;6.70;3.92;;;13.80;80.20;;;;;;5049623;28;20218;-77
2024/01/30 12:43:47;;;;;;;4.30;3.72;;;13.60;80.00;;;;;;5047641;28;20241;-76
2024/01/30 12:46:14;;;;;;;4.82;3.53;;;13.40;78.20;;;;;;5052863;28;20218;-77
2024/01/30 12:48:42;;;;;;;6.68;3.83;;;13.30;78.30;;;;;;5055389;28;20230;-77
2024/01/30 12:51:09;;;;;;;3.65;3.35;;;13.20;79.10;;;;;;5047073;28;20249;-76
2024/01/30 12:53:36;;;;;;;3.80;3.40;;;13.40;79.40;;;;;;5055883;28;20198;-77
2024/01/30 12:56:04;;;;;;;4.00;3.60;;;13.40;79.00;;;;;;5051794;28;20225;-79